Time;durP1;ratioP1;P1;durP2;ratioP2;P2;SDS_P1;SDS_P2;PMS_P1;PMS_P2;Temp;Humidity;BMP_temperature;BMP_pressure;BME280_temperature;BME280_humidity;BME280_pressure;Samples;Min_cycle;Max_cycle;Signal;HPM_P1;HPM_P2
2021/05/05 00:01:54;;;;;;;5.57;3.30;;;7.80;99.90;;;;;;5110135;28;20607;-67
2021/05/05 00:04:20;;;;;;;2.73;2.20;;;7.80;99.90;;;;;;5109904;28;20246;-67
2021/05/05 00:06:46;;;;;;;5.00;2.53;;;7.80;99.90;;;;;;5109923;28;20819;-67
2021/05/05 00:09:12;;;;;;;3.80;2.33;;;7.80;99.90;;;;;;5109822;28;20756;-67
2021/05/05 00:11:38;;;;;;;3.90;2.30;;;7.80;99.90;;;;;;5109820;28;20396;-67
2021/05/05 00:14:04;;;;;;;3.37;2.17;;;7.70;99.90;;;;;;5108927;28;20170;-68
2021/05/05 00:16:30;;;;;;;2.40;2.00;;;7.70;99.90;;;;;;5109616;28;20304;-68
2021/05/05 00:18:56;;;;;;;3.40;2.57;;;7.70;99.90;;;;;;5109642;28;20396;-68
2021/05/05 00:21:21;;;;;;;2.23;1.80;;;7.70;99.90;;;;;;5109657;28;20401;-67
2021/05/05 00:23:47;;;;;;;3.10;2.30;;;7.70;99.90;;;;;;5109502;28;20608;-67
2021/05/05 00:26:12;;;;;;;3.10;2.07;;;7.70;99.90;;;;;;5109515;28;20158;-67
2021/05/05 00:28:38;;;;;;;3.80;1.90;;;7.70;99.90;;;;;;5100718;28;20613;-68
2021/05/05 00:31:03;;;;;;;3.10;2.50;;;7.80;99.90;;;;;;5095173;28;20175;-68
2021/05/05 00:33:29;;;;;;;3.17;2.23;;;7.80;99.90;;;;;;5095866;28;20166;-68
2021/05/05 00:35:54;;;;;;;4.83;2.53;;;7.80;99.90;;;;;;5095829;28;20160;-68
2021/05/05 00:38:20;;;;;;;5.63;2.50;;;7.80;99.90;;;;;;5095784;28;20634;-68
2021/05/05 00:40:45;;;;;;;3.90;2.67;;;7.80;99.90;;;;;;5095641;28;20613;-68
2021/05/05 00:43:11;;;;;;;3.63;2.50;;;7.80;99.90;;;;;;5095670;28;20959;-68
2021/05/05 00:45:37;;;;;;;3.20;2.30;;;7.80;99.90;;;;;;5095622;28;20159;-68
2021/05/05 00:48:02;;;;;;;2.53;2.10;;;7.80;99.90;;;;;;5094711;28;20179;-67
2021/05/05 00:50:28;;;;;;;2.40;2.00;;;7.70;99.90;;;;;;5095461;28;20183;-67
2021/05/05 00:52:54;;;;;;;1.80;1.63;;;7.70;99.90;;;;;;5095590;28;20178;-67
2021/05/05 00:55:19;;;;;;;3.63;2.23;;;7.70;99.90;;;;;;5095366;28;20523;-68
2021/05/05 00:57:46;;;;;;;2.70;1.80;;;7.70;99.90;;;;;;5095301;28;20610;-68
2021/05/05 01:00:13;;;;;;;5.23;2.67;;;7.60;99.90;;;;;;5095353;28;20179;-68
2021/05/05 01:02:38;;;;;;;4.17;2.63;;;7.60;99.90;;;;;;5095325;28;20392;-68
2021/05/05 01:05:06;;;;;;;3.07;2.07;;;7.60;99.90;;;;;;5094364;28;20397;-67
2021/05/05 01:07:33;;;;;;;7.43;2.20;;;7.60;99.90;;;;;;5095233;28;20182;-67
2021/05/05 01:09:59;;;;;;;3.87;2.40;;;7.60;99.90;;;;;;5095112;28;20946;-68
2021/05/05 01:12:24;;;;;;;8.27;2.67;;;7.60;99.90;;;;;;5095018;28;20393;-68
2021/05/05 01:14:50;;;;;;;5.83;2.00;;;7.50;99.90;;;;;;5095049;28;20174;-67
2021/05/05 01:17:16;;;;;;;5.70;3.17;;;7.50;99.90;;;;;;5094806;28;20207;-68
2021/05/05 01:19:42;;;;;;;6.83;2.60;;;7.50;99.90;;;;;;5094996;28;20151;-67
2021/05/05 01:22:08;;;;;;;5.90;2.30;;;7.60;99.90;;;;;;5094004;28;20775;-68
2021/05/05 01:24:35;;;;;;;5.13;2.40;;;7.60;99.90;;;;;;5094867;28;20620;-67
2021/05/05 01:27:04;;;;;;;2.30;1.93;;;7.60;99.90;;;;;;5094672;28;20167;-68
2021/05/05 01:29:29;;;;;;;3.70;2.20;;;7.60;99.90;;;;;;5094779;28;20402;-68
2021/05/05 01:31:55;;;;;;;3.20;2.77;;;7.60;99.90;;;;;;5094720;28;20443;-67
2021/05/05 01:34:20;;;;;;;2.93;2.00;;;7.60;99.90;;;;;;5094679;28;20163;-67
2021/05/05 01:36:46;;;;;;;6.70;2.43;;;7.50;99.90;;;;;;5094549;28;20214;-68
2021/05/05 01:39:15;;;;;;;3.53;2.20;;;7.50;99.90;;;;;;5093224;28;20207;-67
2021/05/05 01:41:41;;;;;;;8.37;2.57;;;7.50;99.90;;;;;;5094161;28;20258;-68
2021/05/05 01:44:07;;;;;;;9.07;3.23;;;7.40;99.90;;;;;;5094724;28;20480;-68
2021/05/05 01:46:33;;;;;;;2.10;1.80;;;7.40;99.90;;;;;;5094440;28;20186;-67
2021/05/05 01:48:59;;;;;;;3.30;2.57;;;7.40;99.90;;;;;;5094211;28;20429;-67
2021/05/05 01:51:24;;;;;;;3.80;2.67;;;7.40;99.90;;;;;;5094298;28;20228;-67
2021/05/05 01:53:50;;;;;;;3.10;2.40;;;7.50;99.90;;;;;;5094315;28;20197;-68
2021/05/05 01:56:16;;;;;;;4.27;2.53;;;7.50;99.90;;;;;;5093423;28;20205;-68
2021/05/05 01:58:41;;;;;;;3.83;2.63;;;7.50;99.90;;;;;;5093903;28;20214;-67
2021/05/05 02:01:07;;;;;;;4.10;2.33;;;7.50;99.90;;;;;;5094471;28;20158;-67
2021/05/05 02:03:33;;;;;;;2.77;2.50;;;7.60;99.90;;;;;;5094102;28;20144;-67
2021/05/05 02:05:59;;;;;;;2.50;2.30;;;7.60;99.90;;;;;;5094005;28;20389;-68
2021/05/05 02:08:25;;;;;;;4.00;2.80;;;7.60;99.90;;;;;;5094014;28;20208;-67
2021/05/05 02:10:51;;;;;;;5.27;3.47;;;7.60;99.90;;;;;;5094162;28;20151;-68
2021/05/05 02:13:16;;;;;;;5.27;2.80;;;7.60;99.90;;;;;;5093112;28;20408;-67
2021/05/05 02:15:42;;;;;;;7.73;3.63;;;7.60;99.90;;;;;;5093510;28;20397;-67
2021/05/05 02:18:10;;;;;;;3.70;3.40;;;7.60;99.90;;;;;;5093714;28;20209;-67
2021/05/05 02:20:36;;;;;;;6.10;3.00;;;7.60;99.90;;;;;;5093830;28;20160;-68
2021/05/05 02:23:02;;;;;;;6.97;3.60;;;7.60;99.90;;;;;;5094180;28;20879;-70
2021/05/05 02:25:28;;;;;;;4.73;2.33;;;7.50;99.90;;;;;;5094150;28;20390;-70
2021/05/05 02:27:54;;;;;;;3.20;2.20;;;7.50;99.90;;;;;;5094398;28;20749;-70
2021/05/05 02:30:21;;;;;;;3.90;2.80;;;7.40;99.90;;;;;;5092774;28;20187;-70
2021/05/05 02:32:49;;;;;;;3.70;2.90;;;7.40;99.90;;;;;;5093542;28;20397;-69
2021/05/05 02:35:15;;;;;;;3.87;2.20;;;7.40;99.90;;;;;;5093693;28;20484;-70
2021/05/05 02:37:43;;;;;;;4.57;3.00;;;7.30;99.90;;;;;;5093386;28;20532;-70
2021/05/05 02:40:12;;;;;;;3.90;2.87;;;7.30;99.90;;;;;;5093456;28;20393;-70
2021/05/05 02:42:38;;;;;;;4.13;2.70;;;7.30;99.90;;;;;;5093895;28;20473;-70
2021/05/05 02:45:04;;;;;;;5.77;3.43;;;7.20;99.90;;;;;;5093277;28;20481;-69
2021/05/05 02:47:30;;;;;;;4.57;3.70;;;7.10;99.90;;;;;;5092465;28;20699;-70
2021/05/05 02:49:55;;;;;;;8.53;3.63;;;7.10;99.90;;;;;;5093127;28;20504;-70
2021/05/05 02:52:21;;;;;;;5.93;3.50;;;7.00;99.90;;;;;;5092993;28;20174;-70
2021/05/05 02:54:47;;;;;;;4.30;3.53;;;7.00;99.90;;;;;;5093222;28;20630;-70
2021/05/05 02:57:12;;;;;;;3.33;3.03;;;6.90;99.90;;;;;;5093796;28;20210;-70
2021/05/05 02:59:38;;;;;;;7.77;4.27;;;6.90;99.90;;;;;;5093333;28;20222;-70
2021/05/05 03:02:05;;;;;;;7.07;4.40;;;6.90;99.90;;;;;;5093102;28;20270;-70
2021/05/05 03:04:31;;;;;;;6.83;3.93;;;6.90;99.90;;;;;;5092239;28;20252;-70
2021/05/05 03:06:57;;;;;;;5.43;4.40;;;6.90;99.90;;;;;;5093021;28;20451;-70
2021/05/05 03:09:25;;;;;;;10.50;5.20;;;6.90;99.90;;;;;;5093096;28;20160;-70
2021/05/05 03:11:52;;;;;;;6.80;4.70;;;6.90;99.90;;;;;;5093634;28;20389;-70
2021/05/05 03:14:18;;;;;;;8.97;4.77;;;7.00;99.90;;;;;;5092985;28;20458;-70
2021/05/05 03:16:44;;;;;;;5.70;4.13;;;7.00;99.90;;;;;;5092708;28;20465;-70
2021/05/05 03:19:09;;;;;;;5.13;4.30;;;7.00;99.90;;;;;;5092917;28;20169;-70
2021/05/05 03:21:39;;;;;;;5.40;4.50;;;7.00;99.90;;;;;;5092156;28;20175;-69
2021/05/05 03:24:06;;;;;;;7.07;4.50;;;7.10;99.90;;;;;;5092773;28;20186;-70
2021/05/05 03:26:31;;;;;;;5.80;5.23;;;7.10;99.90;;;;;;5093525;28;20397;-70
2021/05/05 03:28:57;;;;;;;5.23;4.20;;;7.10;99.90;;;;;;5092908;28;20900;-70
2021/05/05 03:31:22;;;;;;;5.10;4.63;;;7.10;99.90;;;;;;5092819;28;20163;-70
2021/05/05 03:33:48;;;;;;;5.13;4.63;;;7.20;99.90;;;;;;5092822;28;20238;-70
2021/05/05 03:36:14;;;;;;;6.97;4.60;;;7.20;99.90;;;;;;5092646;28;20195;-70
2021/05/05 03:38:40;;;;;;;5.10;4.60;;;7.20;99.90;;;;;;5091939;28;20254;-70
2021/05/05 03:41:05;;;;;;;11.37;4.80;;;7.20;99.90;;;;;;5093184;28;20480;-70
2021/05/05 03:43:31;;;;;;;5.87;4.83;;;7.20;99.90;;;;;;5092655;28;20163;-70
2021/05/05 03:45:56;;;;;;;6.00;4.27;;;7.20;99.90;;;;;;5092666;28;20155;-70
2021/05/05 03:48:23;;;;;;;7.60;4.80;;;7.20;99.90;;;;;;5092581;28;20150;-70
2021/05/05 03:50:49;;;;;;;5.87;5.07;;;7.20;99.90;;;;;;5092532;28;20628;-70
2021/05/05 03:53:15;;;;;;;6.50;5.00;;;7.20;99.90;;;;;;5092764;28;20882;-70
2021/05/05 03:55:40;;;;;;;10.00;5.73;;;7.20;99.90;;;;;;5093068;28;20397;-70
2021/05/05 03:58:06;;;;;;;5.23;4.73;;;7.10;99.90;;;;;;5092644;28;20260;-70
2021/05/05 04:00:32;;;;;;;7.63;5.00;;;7.10;99.90;;;;;;5092783;28;20192;-70
2021/05/05 04:02:57;;;;;;;8.30;4.70;;;7.10;99.90;;;;;;5093203;28;20183;-70
2021/05/05 04:05:23;;;;;;;5.97;5.30;;;7.10;99.90;;;;;;5096409;28;20156;-70
2021/05/05 04:07:48;;;;;;;6.33;5.57;;;7.10;99.90;;;;;;5097200;28;20526;-70
2021/05/05 04:10:14;;;;;;;5.40;4.90;;;7.10;99.90;;;;;;5097982;28;20608;-70
2021/05/05 04:12:40;;;;;;;6.90;4.80;;;7.10;99.90;;;;;;5095556;28;20608;-70
2021/05/05 04:15:07;;;;;;;5.43;4.93;;;7.10;99.90;;;;;;5096326;28;20160;-70
2021/05/05 04:17:32;;;;;;;5.70;5.00;;;7.10;99.90;;;;;;5096152;28;20841;-70
2021/05/05 04:19:59;;;;;;;6.80;5.77;;;7.10;99.90;;;;;;5096201;28;20484;-70
2021/05/05 04:22:26;;;;;;;7.00;5.77;;;7.20;99.90;;;;;;5096476;28;20163;-70
2021/05/05 04:24:52;;;;;;;7.83;6.30;;;7.20;99.90;;;;;;5097005;28;20393;-70
2021/05/05 04:27:18;;;;;;;6.40;5.80;;;7.20;99.90;;;;;;5096073;28;20408;-70
2021/05/05 04:29:44;;;;;;;8.50;6.20;;;7.20;99.90;;;;;;5095077;28;20417;-70
2021/05/05 04:32:11;;;;;;;6.30;5.37;;;7.20;99.90;;;;;;5095920;28;20900;-70
2021/05/05 04:34:37;;;;;;;6.70;5.30;;;7.20;99.90;;;;;;5095907;28;20569;-70
2021/05/05 04:37:05;;;;;;;7.50;6.70;;;7.30;99.90;;;;;;5096345;28;20555;-70
2021/05/05 04:39:31;;;;;;;8.83;7.10;;;7.30;99.90;;;;;;5096261;28;20162;-70
2021/05/05 04:41:57;;;;;;;9.70;6.87;;;7.30;99.90;;;;;;5095749;28;20762;-70
2021/05/05 04:44:22;;;;;;;7.90;5.60;;;7.40;99.90;;;;;;5095758;28;20390;-70
2021/05/05 04:46:48;;;;;;;7.00;5.50;;;7.40;99.90;;;;;;5094818;28;20201;-70
2021/05/05 04:49:14;;;;;;;7.10;6.27;;;7.40;99.90;;;;;;5095555;28;20263;-70
2021/05/05 04:51:39;;;;;;;9.87;7.67;;;7.40;99.90;;;;;;5095585;28;20220;-70
2021/05/05 04:54:07;;;;;;;8.17;7.10;;;7.50;99.90;;;;;;5095890;28;20196;-70
2021/05/05 04:56:34;;;;;;;8.83;6.47;;;7.50;99.90;;;;;;5095345;28;20244;-70
2021/05/05 04:59:00;;;;;;;7.00;6.40;;;7.50;99.90;;;;;;5095543;28;20796;-70
2021/05/05 05:01:26;;;;;;;8.00;7.20;;;7.50;99.90;;;;;;5095331;28;20412;-70
2021/05/05 05:03:51;;;;;;;7.77;7.00;;;7.60;99.90;;;;;;5095927;28;20405;-70
2021/05/05 05:06:17;;;;;;;8.23;7.40;;;7.60;99.90;;;;;;5096286;28;20197;-70
2021/05/05 05:08:43;;;;;;;7.30;6.60;;;7.60;99.90;;;;;;5096201;28;20163;-70
2021/05/05 05:11:08;;;;;;;7.10;6.40;;;7.60;99.90;;;;;;5095334;28;20162;-70
2021/05/05 05:13:34;;;;;;;8.40;7.10;;;7.70;99.90;;;;;;5095243;28;20205;-70
2021/05/05 05:15:59;;;;;;;15.03;8.10;;;7.70;99.90;;;;;;5095025;28;20195;-70
2021/05/05 05:18:25;;;;;;;7.87;6.53;;;7.70;99.90;;;;;;5096797;28;20148;-70
2021/05/05 05:20:51;;;;;;;8.17;7.37;;;7.70;99.90;;;;;;5094864;28;20240;-70
2021/05/05 05:23:17;;;;;;;8.17;7.13;;;7.70;99.90;;;;;;5095076;28;20198;-70
2021/05/05 05:25:43;;;;;;;9.07;7.30;;;7.80;99.90;;;;;;5094991;28;20421;-70
2021/05/05 05:28:08;;;;;;;10.20;6.43;;;7.80;99.90;;;;;;5094965;28;20167;-69
2021/05/05 05:30:34;;;;;;;10.10;7.30;;;7.80;99.90;;;;;;5094912;28;20631;-70
2021/05/05 05:32:59;;;;;;;9.60;7.23;;;7.80;99.90;;;;;;5097935;28;20163;-70
2021/05/05 05:35:25;;;;;;;8.97;8.00;;;7.80;99.90;;;;;;5095494;28;20235;-70
2021/05/05 05:37:51;;;;;;;10.97;9.70;;;7.80;99.90;;;;;;5094377;28;20191;-70
2021/05/05 05:40:17;;;;;;;12.73;8.63;;;7.70;99.90;;;;;;5094692;28;20386;-70
2021/05/05 05:42:43;;;;;;;8.70;7.50;;;7.50;99.90;;;;;;5094691;28;20147;-70
2021/05/05 05:45:10;;;;;;;11.30;10.10;;;7.40;99.90;;;;;;5094804;28;20481;-70
2021/05/05 05:47:35;;;;;;;12.73;11.20;;;7.20;99.90;;;;;;5095873;28;20808;-70
2021/05/05 05:50:01;;;;;;;18.27;12.73;;;7.00;99.90;;;;;;5095583;28;20497;-70
2021/05/05 05:52:27;;;;;;;16.33;13.57;;;6.90;99.90;;;;;;5094906;28;20191;-70
2021/05/05 05:54:53;;;;;;;16.37;14.10;;;6.80;99.90;;;;;;5093620;28;20175;-70
2021/05/05 05:57:18;;;;;;;20.97;16.57;;;6.80;99.90;;;;;;5094323;28;20432;-70
2021/05/05 05:59:44;;;;;;;15.87;14.27;;;6.80;99.90;;;;;;5094178;28;20213;-70
2021/05/05 06:02:10;;;;;;;17.03;15.10;;;6.80;99.90;;;;;;5096181;28;20624;-70
2021/05/05 06:04:36;;;;;;;18.43;15.20;;;6.80;99.90;;;;;;5095066;28;20168;-70
2021/05/05 06:07:02;;;;;;;18.70;15.00;;;6.80;99.90;;;;;;5094455;28;20450;-70
2021/05/05 06:09:27;;;;;;;15.27;13.07;;;6.80;99.90;;;;;;5094348;28;20164;-70
2021/05/05 06:11:53;;;;;;;26.13;16.60;;;6.90;99.90;;;;;;5093276;28;20203;-70
2021/05/05 06:14:18;;;;;;;19.07;16.73;;;6.90;99.90;;;;;;5094174;28;20167;-70
2021/05/05 06:16:44;;;;;;;18.20;15.23;;;7.00;99.90;;;;;;5093836;28;20198;-70
2021/05/05 06:19:10;;;;;;;16.50;13.60;;;7.00;99.90;;;;;;5094702;28;20156;-70
2021/05/05 06:21:36;;;;;;;15.57;13.80;;;7.10;99.90;;;;;;5093988;28;20809;-70
2021/05/05 06:24:01;;;;;;;14.40;12.80;;;7.20;99.90;;;;;;5093944;28;20156;-70
2021/05/05 06:26:27;;;;;;;13.53;12.13;;;7.30;99.90;;;;;;5093384;28;20175;-70
2021/05/05 06:28:52;;;;;;;15.80;12.10;;;7.40;99.90;;;;;;5092876;28;20624;-70
2021/05/05 06:31:18;;;;;;;13.37;12.07;;;7.50;99.90;;;;;;5093717;28;20234;-70
2021/05/05 06:33:44;;;;;;;13.43;12.00;;;7.50;99.90;;;;;;5094131;28;20183;-70
2021/05/05 06:36:09;;;;;;;14.53;13.03;;;7.50;99.90;;;;;;5093228;28;20163;-70
2021/05/05 06:38:35;;;;;;;15.07;11.80;;;7.70;99.90;;;;;;5093779;28;20159;-70
2021/05/05 06:41:01;;;;;;;16.83;12.70;;;7.70;99.90;;;;;;5092918;28;20152;-70
2021/05/05 06:43:26;;;;;;;12.87;11.47;;;7.70;99.90;;;;;;5093342;28;20240;-70
2021/05/05 06:45:52;;;;;;;18.13;11.17;;;7.80;99.90;;;;;;5074418;28;20180;-70
2021/05/05 06:48:18;;;;;;;14.57;13.07;;;7.70;99.90;;;;;;5074708;28;20164;-70
2021/05/05 06:50:44;;;;;;;13.77;12.20;;;7.70;99.90;;;;;;5090198;28;20236;-70
2021/05/05 06:53:11;;;;;;;14.00;12.47;;;7.70;99.90;;;;;;5093269;28;20496;-70
2021/05/05 06:55:36;;;;;;;15.20;11.93;;;7.70;99.90;;;;;;5092291;28;20397;-70
2021/05/05 06:58:02;;;;;;;8.63;7.40;;;7.60;99.90;;;;;;5093441;28;20448;-70
2021/05/05 07:00:28;;;;;;;9.60;8.37;;;7.50;99.90;;;;;;5093205;28;20187;-70
2021/05/05 07:02:53;;;;;;;10.73;9.63;;;7.40;99.90;;;;;;5094021;28;20183;-70
2021/05/05 07:05:21;;;;;;;13.10;10.20;;;7.30;99.90;;;;;;5093067;28;20168;-70
2021/05/05 07:07:46;;;;;;;14.67;10.13;;;7.20;99.90;;;;;;5092804;28;20238;-70
2021/05/05 07:10:13;;;;;;;13.50;11.00;;;7.10;99.90;;;;;;5092925;28;20504;-70
2021/05/05 07:12:38;;;;;;;13.60;12.20;;;7.10;99.90;;;;;;5091443;28;20167;-70
2021/05/05 07:15:05;;;;;;;13.50;12.00;;;7.10;99.90;;;;;;5090765;28;20909;-70
2021/05/05 07:17:32;;;;;;;15.47;11.87;;;7.10;99.90;;;;;;5093930;28;20457;-70
2021/05/05 07:19:57;;;;;;;11.00;9.90;;;7.20;99.90;;;;;;5091193;28;20412;-70
2021/05/05 07:22:23;;;;;;;11.77;9.60;;;7.20;99.90;;;;;;5092864;28;20401;-70
2021/05/05 07:24:48;;;;;;;11.50;8.33;;;7.20;99.90;;;;;;5092976;28;20182;-70
2021/05/05 07:27:16;;;;;;;9.20;7.30;;;7.20;99.90;;;;;;5092963;28;20163;-70
2021/05/05 07:29:42;;;;;;;7.03;6.43;;;7.20;99.90;;;;;;5092826;28;20171;-70
2021/05/05 07:32:08;;;;;;;8.17;6.57;;;7.20;99.90;;;;;;5093913;28;20414;-70
2021/05/05 07:34:34;;;;;;;7.10;6.40;;;7.30;99.90;;;;;;5093058;28;20295;-70
2021/05/05 07:37:25;;;;;;;5.80;5.20;;;7.30;99.90;;;;;;5074299;28;21047;-70
2021/05/05 07:45:31;;;;;;;6.60;6.10;;;7.40;99.90;;;;;;5076407;28;20431;-70
2021/05/05 07:48:04;;;;;;;7.40;6.77;;;7.40;99.90;;;;;;5077094;28;20398;-70
2021/05/05 07:50:30;;;;;;;7.90;7.20;;;7.40;99.90;;;;;;5091171;28;20425;-70
2021/05/05 07:52:55;;;;;;;8.57;7.67;;;7.40;99.90;;;;;;5095854;28;20940;-70
2021/05/05 07:55:21;;;;;;;8.40;7.60;;;7.40;99.90;;;;;;5096631;28;20642;-70
2021/05/05 07:57:47;;;;;;;10.00;9.00;;;7.40;99.90;;;;;;5096599;28;20518;-70
2021/05/05 08:00:13;;;;;;;10.00;9.00;;;7.30;99.90;;;;;;5097740;28;20461;-70
2021/05/05 08:02:39;;;;;;;9.37;8.57;;;7.30;99.90;;;;;;5097006;28;20239;-70
2021/05/05 08:05:05;;;;;;;10.37;7.83;;;7.30;99.90;;;;;;5096670;28;20393;-70
2021/05/05 08:07:31;;;;;;;9.80;7.97;;;7.40;99.90;;;;;;5096495;28;20401;-70
2021/05/05 08:09:57;;;;;;;10.27;8.73;;;7.30;99.90;;;;;;5095767;28;20466;-70
2021/05/05 08:12:22;;;;;;;8.13;7.33;;;7.30;99.90;;;;;;5096401;28;20178;-70
2021/05/05 08:14:50;;;;;;;7.90;7.20;;;7.30;99.90;;;;;;5097755;28;20160;-70
2021/05/05 08:17:16;;;;;;;11.00;8.57;;;7.30;99.90;;;;;;5096642;28;20565;-70
2021/05/05 08:19:42;;;;;;;8.63;7.23;;;7.20;99.90;;;;;;5096261;28;20385;-70
2021/05/05 08:22:08;;;;;;;6.10;5.60;;;7.20;99.90;;;;;;5096311;28;20472;-70
2021/05/05 08:24:33;;;;;;;6.80;5.90;;;7.20;99.90;;;;;;5095884;28;20773;-70
2021/05/05 08:26:59;;;;;;;6.30;5.70;;;7.20;99.90;;;;;;5094623;28;20179;-70
2021/05/05 08:29:28;;;;;;;7.63;5.17;;;7.20;99.90;;;;;;5094288;28;20224;-70
2021/05/05 08:31:55;;;;;;;6.23;5.60;;;7.30;99.90;;;;;;5095888;28;20167;-70
2021/05/05 08:34:20;;;;;;;5.00;4.47;;;7.30;99.90;;;;;;5095757;28;20401;-70
2021/05/05 08:36:46;;;;;;;3.43;2.87;;;7.50;99.90;;;;;;5095889;28;20452;-70
2021/05/05 08:39:12;;;;;;;2.83;2.63;;;7.50;99.90;;;;;;5095694;28;20155;-70
2021/05/05 08:41:39;;;;;;;2.13;2.03;;;7.60;99.90;;;;;;5096108;28;20160;-69
2021/05/05 08:44:13;;;;;;;2.87;2.60;;;7.70;99.90;;;;;;5085227;28;20183;-70
2021/05/05 08:46:40;;;;;;;3.23;2.50;;;7.80;99.90;;;;;;5075450;28;20947;-70
2021/05/05 08:49:06;;;;;;;3.07;2.80;;;8.00;99.90;;;;;;5077965;28;20493;-70
2021/05/05 08:51:32;;;;;;;3.40;2.63;;;8.10;99.90;;;;;;5095525;28;20954;-70
2021/05/05 08:53:57;;;;;;;2.10;1.90;;;8.20;99.90;;;;;;5095506;28;20160;-70
2021/05/05 08:56:23;;;;;;;2.60;2.40;;;8.30;99.90;;;;;;5095363;28;20513;-70
2021/05/05 08:58:48;;;;;;;3.80;2.70;;;8.40;99.90;;;;;;5096124;28;20644;-70
2021/05/05 09:01:14;;;;;;;3.20;3.00;;;8.40;99.90;;;;;;5094573;28;20171;-70
2021/05/05 09:03:42;;;;;;;3.97;3.67;;;8.50;99.90;;;;;;5095607;28;20166;-70
2021/05/05 09:06:08;;;;;;;3.07;2.87;;;9.10;99.90;;;;;;5095558;28;20163;-70
2021/05/05 09:08:34;;;;;;;3.53;3.23;;;10.00;99.90;;;;;;5095162;28;20477;-70
2021/05/05 09:11:04;;;;;;;2.80;2.40;;;10.90;99.90;;;;;;5095419;28;20171;-70
2021/05/05 09:13:52;;;;;;;3.30;1.93;;;11.90;99.90;;;;;;5095852;28;20385;-70
2021/05/05 09:16:21;;;;;;;3.83;1.87;;;12.90;99.90;;;;;;5084071;28;20425;-70
2021/05/05 09:18:57;;;;;;;6.27;2.83;;;13.70;99.90;;;;;;5075457;28;20551;-70
2021/05/05 09:21:26;;;;;;;3.23;1.87;;;14.40;99.90;;;;;;5074768;28;20394;-70
2021/05/05 09:23:51;;;;;;;4.70;1.93;;;14.90;99.90;;;;;;5074780;28;20760;-70
2021/05/05 09:26:34;;;;;;;2.23;2.03;;;15.30;99.90;;;;;;5074836;28;20391;-70
2021/05/05 09:28:59;;;;;;;4.90;1.77;;;15.40;99.90;;;;;;5075315;28;20160;-70
2021/05/05 09:31:36;;;;;;;3.37;1.90;;;15.20;99.90;;;;;;5080799;28;20423;-67
2021/05/05 09:34:03;;;;;;;4.90;2.37;;;15.00;99.90;;;;;;5083697;28;20165;-67
2021/05/05 09:36:29;;;;;;;4.60;2.60;;;14.90;99.90;;;;;;5091640;28;20936;-68
2021/05/05 09:38:55;;;;;;;3.63;2.77;;;15.00;99.90;;;;;;5090964;28;20401;-68
2021/05/05 09:44:02;;;;;;;5.00;2.20;;;15.00;99.90;;;;;;5101415;27;20572;-70
2021/05/05 09:46:41;;;;;;;5.10;2.90;;;14.80;99.90;;;;;;5089459;28;20397;-70
2021/05/05 09:54:55;;;;;;;7.00;2.43;;;14.50;99.90;;;;;;5094462;27;20592;-70
2021/05/05 10:02:56;;;;;;;5.77;3.40;;;13.20;99.90;;;;;;5163843;27;20559;-69
2021/05/05 10:05:26;;;;;;;15.53;3.93;;;12.90;99.90;;;;;;5158777;27;20405;-69
2021/05/05 10:07:58;;;;;;;13.27;4.60;;;12.80;99.90;;;;;;5152903;27;20382;-69
2021/05/05 10:10:26;;;;;;;6.93;4.83;;;12.80;99.90;;;;;;5151613;27;20452;-69
2021/05/05 10:12:53;;;;;;;9.50;6.20;;;12.80;99.90;;;;;;5151581;27;20405;-69
2021/05/05 10:15:19;;;;;;;14.07;8.50;;;12.60;99.90;;;;;;5150905;27;20738;-69
2021/05/05 10:17:48;;;;;;;9.57;5.97;;;12.50;99.90;;;;;;5150866;27;20427;-69
2021/05/05 10:20:16;;;;;;;6.37;4.40;;;12.30;99.90;;;;;;5150913;27;20165;-69
2021/05/05 10:22:43;;;;;;;10.40;4.87;;;12.50;99.90;;;;;;5150549;27;20776;-69
2021/05/05 10:25:13;;;;;;;9.20;5.83;;;12.50;99.90;;;;;;5151551;27;20553;-69
2021/05/05 10:27:39;;;;;;;7.43;4.83;;;12.80;99.90;;;;;;5150348;27;20414;-70
2021/05/05 10:30:05;;;;;;;7.50;5.50;;;12.80;99.90;;;;;;5150823;27;20470;-69
2021/05/05 10:32:33;;;;;;;7.90;4.10;;;12.60;99.90;;;;;;5151282;27;20212;-70
2021/05/05 10:34:59;;;;;;;3.93;2.20;;;12.40;99.90;;;;;;5152545;27;20407;-69
2021/05/05 10:37:46;;;;;;;2.63;2.33;;;12.00;99.90;;;;;;5159631;27;20425;-70
2021/05/05 10:40:15;;;;;;;3.37;2.50;;;11.20;99.90;;;;;;5143455;27;20417;-70
2021/05/05 10:42:51;;;;;;;2.20;2.00;;;10.60;99.90;;;;;;5150135;27;20539;-69
2021/05/05 10:45:43;;;;;;;2.70;2.50;;;10.10;99.90;;;;;;5143231;27;20412;-69
2021/05/05 10:53:47;;;;;;;2.83;2.63;;;9.80;99.90;;;;;;5097888;27;20878;-70
2021/05/05 10:56:23;;;;;;;2.63;2.20;;;8.80;99.90;;;;;;5095864;28;20462;-70
2021/05/05 10:59:03;;;;;;;2.77;2.50;;;8.70;99.90;;;;;;5097144;28;20430;-68
2021/05/05 11:04:14;;;;;;;3.13;2.80;;;8.90;99.90;;;;;;5172386;27;20557;-69
2021/05/05 11:06:42;;;;;;;4.43;2.70;;;9.20;99.90;;;;;;5163443;27;20749;-69
2021/05/05 11:11:50;;;;;;;8.47;4.13;;;9.50;99.90;;;;;;5093724;27;20518;-70
2021/05/05 11:25:22;;;;;;;8.20;5.33;;;10.20;99.90;;;;;;5058690;28;20518;-69
2021/05/05 11:27:51;;;;;;;9.33;5.20;;;11.40;99.90;;;;;;5049654;28;20416;-69
2021/05/05 11:30:39;;;;;;;8.40;5.17;;;11.50;99.90;;;;;;5049720;28;20496;-69
2021/05/05 11:33:06;;;;;;;7.00;5.00;;;11.20;99.90;;;;;;5048294;28;20429;-69
2021/05/05 11:35:32;;;;;;;9.40;5.53;;;11.00;99.90;;;;;;5049728;28;20946;-69
2021/05/05 11:38:18;;;;;;;5.63;5.13;;;10.90;99.90;;;;;;5049945;28;20466;-70
2021/05/05 11:40:51;;;;;;;9.80;5.87;;;10.90;99.90;;;;;;5048945;28;20438;-69
2021/05/05 11:43:19;;;;;;;7.50;4.83;;;11.00;99.90;;;;;;5048987;28;20478;-69
2021/05/05 11:45:49;;;;;;;5.00;4.43;;;11.20;99.90;;;;;;5049714;28;20422;-69
2021/05/05 11:48:24;;;;;;;6.63;4.57;;;11.40;99.90;;;;;;5049594;28;20840;-70
2021/05/05 11:50:50;;;;;;;5.83;4.27;;;11.50;99.90;;;;;;5047599;28;20417;-70
2021/05/05 11:53:28;;;;;;;5.87;4.43;;;11.40;99.90;;;;;;5051373;28;20459;-70
2021/05/05 11:55:54;;;;;;;7.87;5.20;;;11.30;99.90;;;;;;5050221;28;20212;-69
2021/05/05 11:58:21;;;;;;;6.10;4.43;;;11.20;99.90;;;;;;5048883;28;20456;-70
2021/05/05 12:00:47;;;;;;;5.73;2.97;;;11.10;99.90;;;;;;5048453;28;20169;-69
2021/05/05 12:03:13;;;;;;;3.33;2.43;;;10.80;99.90;;;;;;5041258;28;20447;-69
2021/05/05 12:05:41;;;;;;;3.83;2.87;;;10.20;99.90;;;;;;5047500;28;20413;-69
2021/05/05 12:08:12;;;;;;;4.13;2.70;;;9.70;99.90;;;;;;5044921;28;20229;-70
2021/05/05 12:13:25;;;;;;;6.33;3.37;;;9.10;99.90;;;;;;5092717;27;20583;-69
2021/05/05 12:15:58;;;;;;;4.10;3.30;;;8.60;99.90;;;;;;5077095;28;20519;-69
2021/05/05 12:18:28;;;;;;;5.87;3.27;;;8.50;99.90;;;;;;5071469;28;20412;-69
2021/05/05 12:21:02;;;;;;;4.00;2.97;;;8.70;99.90;;;;;;5083801;28;20907;-70
2021/05/05 12:29:00;;;;;;;6.83;3.50;;;9.00;99.90;;;;;;5080620;27;20597;-70
2021/05/05 12:31:29;;;;;;;5.30;3.40;;;8.90;99.90;;;;;;5068403;28;20488;-70
2021/05/05 12:33:57;;;;;;;6.23;3.60;;;8.80;99.90;;;;;;5069191;28;20417;-70
2021/05/05 12:36:26;;;;;;;5.80;4.43;;;8.80;99.90;;;;;;5063957;28;20397;-71
2021/05/05 12:38:55;;;;;;;7.37;4.10;;;8.90;99.90;;;;;;5062007;28;20437;-68
2021/05/05 12:41:24;;;;;;;6.60;3.23;;;8.90;99.90;;;;;;5063680;28;20422;-68
2021/05/05 12:43:52;;;;;;;13.63;5.33;;;9.00;99.90;;;;;;5061695;28;20805;-68
2021/05/05 12:46:31;;;;;;;8.83;4.00;;;9.10;99.90;;;;;;5053435;28;20484;-68
2021/05/05 12:48:58;;;;;;;3.83;3.33;;;9.00;99.90;;;;;;5059176;28;20425;-68
2021/05/05 12:51:26;;;;;;;4.37;3.33;;;8.90;99.90;;;;;;5066975;28;20932;-70
2021/05/05 12:54:02;;;;;;;3.70;3.20;;;8.90;99.90;;;;;;5057316;28;20892;-68
2021/05/05 12:59:31;;;;;;;3.57;3.00;;;9.30;99.90;;;;;;5093926;27;20596;-69
2021/05/05 13:02:04;;;;;;;2.87;2.30;;;9.50;99.90;;;;;;5076812;28;20396;-69
2021/05/05 13:04:46;;;;;;;2.57;2.37;;;9.60;99.90;;;;;;5081627;28;20449;-70
2021/05/05 13:07:34;;;;;;;6.00;2.37;;;9.70;99.90;;;;;;5082101;28;20802;-69
2021/05/05 13:12:44;;;;;;;5.20;2.27;;;9.90;99.90;;;;;;5080441;27;20524;-70
2021/05/05 13:15:28;;;;;;;3.93;3.13;;;10.00;99.90;;;;;;5052589;28;20801;-70
2021/05/05 13:32:00;;;;;;;4.13;2.37;;;10.80;99.90;;;;;;5066593;28;20420;-69
2021/05/05 13:34:30;;;;;;;5.27;2.53;;;10.80;99.90;;;;;;5068430;28;20406;-70
2021/05/05 13:37:00;;;;;;;3.57;2.10;;;10.80;99.90;;;;;;5067512;28;20436;-69
2021/05/05 13:39:31;;;;;;;5.77;2.07;;;10.80;99.90;;;;;;5068208;28;20418;-69
2021/05/05 13:41:59;;;;;;;4.30;1.87;;;10.60;99.90;;;;;;5068234;28;20880;-69
2021/05/05 13:44:29;;;;;;;6.73;2.00;;;10.40;99.90;;;;;;5068945;28;20773;-69
2021/05/05 13:47:05;;;;;;;4.63;2.17;;;10.20;99.90;;;;;;5068246;28;20457;-69
2021/05/05 13:49:37;;;;;;;3.80;2.30;;;9.90;99.90;;;;;;5061220;28;20430;-70
2021/05/05 13:52:06;;;;;;;5.00;2.20;;;9.80;99.90;;;;;;5067579;28;20466;-69
2021/05/05 13:54:32;;;;;;;3.23;2.33;;;9.60;99.90;;;;;;5067717;28;20449;-69
2021/05/05 13:57:02;;;;;;;2.87;2.20;;;9.50;99.90;;;;;;5068047;28;20937;-69
2021/05/05 13:59:29;;;;;;;4.80;2.60;;;9.50;99.90;;;;;;5056719;28;20493;-69
2021/05/05 14:01:54;;;;;;;4.90;2.57;;;9.50;99.90;;;;;;5048407;28;20446;-70
2021/05/05 14:04:20;;;;;;;3.57;2.30;;;9.60;99.90;;;;;;5047564;28;20431;-69